Time;durP1;ratioP1;P1;durP2;ratioP2;P2;SDS_P1;SDS_P2;PMS_P1;PMS_P2;Temp;Humidity;BMP_temperature;BMP_pressure;BME280_temperature;BME280_humidity;BME280_pressure;Samples;Min_cycle;Max_cycle;Signal;HPM_P1;HPM_P2
2023/01/28 00:01:37;;;;;;;4.20;2.20;;;;;;;0.31;100.00;99407.59;5051659;28;20017;-72
2023/01/28 00:04:02;;;;;;;4.32;2.08;;;;;;;0.31;100.00;99412.91;5045532;28;20024;-72
2023/01/28 00:06:28;;;;;;;5.82;2.40;;;;;;;0.30;100.00;99405.91;5044429;28;20063;-72
2023/01/28 00:08:54;;;;;;;5.43;2.13;;;;;;;0.30;100.00;99406.75;5057541;28;20029;-71
2023/01/28 00:11:21;;;;;;;4.30;2.22;;;;;;;0.32;100.00;99403.97;5046430;28;20365;-72
2023/01/28 00:13:51;;;;;;;3.45;1.88;;;;;;;0.36;100.00;99413.41;5035622;28;20112;-72
2023/01/28 00:16:16;;;;;;;4.80;2.20;;;;;;;0.40;100.00;99418.34;5035001;28;20021;-72
2023/01/28 00:18:41;;;;;;;4.05;2.22;;;;;;;0.33;100.00;99421.63;5049894;28;20048;-71
2023/01/28 00:21:10;;;;;;;3.90;2.30;;;;;;;0.33;100.00;99417.16;5037436;28;20483;-72
2023/01/28 00:23:38;;;;;;;5.55;2.40;;;;;;;0.25;100.00;99392.13;5044417;28;20107;-70
2023/01/28 00:26:06;;;;;;;3.28;2.10;;;;;;;0.32;100.00;99403.97;5051140;28;20047;-70
2023/01/28 00:28:31;;;;;;;3.78;2.28;;;;;;;0.35;100.00;99409.06;5044489;28;20375;-70
2023/01/28 00:31:08;;;;;;;3.90;2.22;;;;;;;0.32;100.00;99403.97;5064196;28;20109;-70
2023/01/28 00:33:34;;;;;;;4.93;2.13;;;;;;;0.26;100.00;99394.66;5046514;28;20017;-73
2023/01/28 00:36:01;;;;;;;4.90;2.50;;;;;;;0.32;100.00;99404.81;5048978;28;20047;-67
2023/01/28 00:38:27;;;;;;;4.25;2.20;;;;;;;0.35;100.00;99401.06;5049762;28;20036;-70
2023/01/28 00:40:52;;;;;;;4.47;1.90;;;;;;;0.36;100.00;99394.75;5048883;28;20017;-70
2023/01/28 00:43:19;;;;;;;4.68;2.45;;;;;;;0.33;100.00;99395.03;5042033;28;20093;-70
2023/01/28 00:45:45;;;;;;;5.10;2.28;;;;;;;0.35;100.00;99395.75;5048096;28;20039;-70
2023/01/28 00:48:10;;;;;;;3.97;2.22;;;;;;;0.36;100.00;99400.09;5066881;28;20021;-72
2023/01/28 00:50:38;;;;;;;4.93;2.35;;;;;;;0.36;100.00;99403.59;5053931;28;20527;-70
2023/01/28 00:53:03;;;;;;;6.47;2.55;;;;;;;0.36;100.00;99398.25;5048515;28;20020;-70
2023/01/28 00:55:29;;;;;;;3.88;2.17;;;;;;;0.39;100.00;99392.72;5064557;28;20044;-70
2023/01/28 00:57:54;;;;;;;4.03;1.90;;;;;;;0.39;100.00;99397.16;5059129;28;20111;-70
2023/01/28 01:00:24;;;;;;;4.25;1.83;;;;;;;0.42;100.00;99399.63;5055181;28;20464;-70
2023/01/28 01:03:15;;;;;;;4.00;2.47;;;;;;;0.42;100.00;99389.81;5041762;28;20376;-70
2023/01/28 01:05:40;;;;;;;3.75;1.80;;;;;;;0.37;100.00;99393.81;5050329;28;20067;-70
2023/01/28 01:08:06;;;;;;;4.97;2.35;;;;;;;0.37;100.00;99394.66;5053305;28;20056;-69
2023/01/28 01:10:31;;;;;;;3.88;2.10;;;;;;;0.35;100.00;99393.09;5041674;28;20469;-70
2023/01/28 01:12:57;;;;;;;4.68;2.15;;;;;;;0.31;100.00;99379.16;5041949;28;20020;-69
2023/01/28 01:15:23;;;;;;;4.00;1.98;;;;;;;0.36;100.00;99400.94;5050534;28;20118;-70
2023/01/28 01:17:49;;;;;;;4.05;2.20;;;;;;;0.36;100.00;99402.75;5056950;28;20036;-71
2023/01/28 01:20:18;;;;;;;4.35;2.08;;;;;;;0.42;100.00;99411.09;5037760;28;20039;-71
2023/01/28 01:22:44;;;;;;;;;;;;;;;0.43;100.00;99410.13;5052977;28;20107;-70
2023/01/28 01:25:11;;;;;;;4.90;2.38;;;;;;;0.36;100.00;99405.41;5053324;28;20011;-71
2023/01/28 01:27:36;;;;;;;5.78;2.47;;;;;;;0.33;100.00;99406.50;5048370;28;20070;-71
2023/01/28 01:30:02;;;;;;;5.55;2.80;;;;;;;0.29;100.00;99409.53;5055302;28;20024;-71
2023/01/28 01:32:30;;;;;;;7.55;2.53;;;;;;;0.31;100.00;99407.59;5048225;28;20464;-71
2023/01/28 01:34:55;;;;;;;5.32;2.30;;;;;;;0.28;100.00;99414.00;5055748;28;20061;-71
2023/01/28 01:37:20;;;;;;;4.07;2.33;;;;;;;0.27;100.00;99406.16;5056443;28;20032;-71
2023/01/28 01:39:46;;;;;;;4.32;2.15;;;;;;;0.23;100.00;99405.53;5046013;28;20127;-70
2023/01/28 01:42:12;;;;;;;5.07;2.35;;;;;;;0.24;100.00;99417.03;5053154;28;20365;-70
2023/01/28 01:45:04;;;;;;;3.95;2.40;;;;;;;0.27;100.00;99412.31;5041699;28;20024;-71
2023/01/28 01:47:47;;;;;;;4.10;2.03;;;;;;;0.28;100.00;99423.81;5038074;28;20357;-70
2023/01/28 01:50:19;;;;;;;5.13;2.60;;;;;;;0.25;100.00;99418.75;5048465;28;20074;-70
2023/01/28 01:52:46;;;;;;;5.18;2.78;;;;;;;0.23;100.00;99410.88;5047804;28;20113;-70
2023/01/28 01:55:17;;;;;;;5.18;2.50;;;;;;;0.27;100.00;99412.31;5062910;28;20025;-70
2023/01/28 01:57:44;;;;;;;4.88;2.55;;;;;;;0.27;100.00;99412.31;5049632;28;20494;-71
2023/01/28 02:00:10;;;;;;;4.90;2.45;;;;;;;0.31;100.00;99415.59;5045953;28;20025;-70
2023/01/28 02:02:39;;;;;;;4.32;2.30;;;;;;;0.28;100.00;99416.66;5049195;28;20074;-71
2023/01/28 02:05:06;;;;;;;;;;;;;;;0.29;100.00;99415.72;5057887;28;20551;-70
2023/01/28 02:07:32;;;;;;;4.93;2.20;;;;;;;0.30;100.00;99416.56;5053705;28;20363;-71
2023/01/28 02:09:57;;;;;;;4.88;2.55;;;;;;;0.32;100.00;99420.78;5050275;28;20025;-71
2023/01/28 02:12:29;;;;;;;4.93;2.70;;;;;;;0.30;100.00;99413.91;5046763;28;20384;-70
2023/01/28 02:15:08;;;;;;;4.13;2.67;;;;;;;0.34;100.00;99412.66;5047410;28;20380;-71
2023/01/28 02:17:34;;;;;;;5.17;2.60;;;;;;;0.28;100.00;99415.84;5053003;28;20032;-71
2023/01/28 02:20:09;;;;;;;4.95;2.60;;;;;;;0.26;100.00;99415.09;5051835;28;20555;-70
2023/01/28 02:22:38;;;;;;;5.25;2.55;;;;;;;0.22;100.00;99418.00;5072062;28;20051;-70
2023/01/28 02:25:22;;;;;;;6.28;3.00;;;;;;;0.36;100.00;99416.06;5041262;28;20029;-70
2023/01/28 02:28:10;;;;;;;6.32;3.20;;;;;;;0.26;100.00;99418.59;5046450;28;20040;-71
2023/01/28 02:30:40;;;;;;;5.53;2.70;;;;;;;0.30;100.00;99421.88;5045538;28;20115;-70
2023/01/28 02:33:17;;;;;;;5.47;2.85;;;;;;;0.26;100.00;99417.75;5048354;28;20104;-71
2023/01/28 02:35:53;;;;;;;5.40;2.88;;;;;;;0.29;100.00;99434.34;5039714;28;20036;-70
2023/01/28 02:38:32;;;;;;;5.47;2.53;;;;;;;0.32;100.00;99425.28;5052359;28;20030;-71
2023/01/28 02:41:12;;;;;;;7.68;3.20;;;;;;;0.29;100.00;99429.03;5044065;28;20051;-70
2023/01/28 02:43:41;;;;;;;7.20;3.40;;;;;;;0.29;100.00;99426.38;5044123;28;20035;-71
2023/01/28 02:49:18;;;;;;;5.45;2.90;;;;;;;0.30;100.00;99424.53;5074559;28;20028;-64
2023/01/28 02:52:19;;;;;;;5.40;3.08;;;;;;;0.30;100.00;99433.38;5059579;28;20436;-63
2023/01/28 02:54:51;;;;;;;6.40;3.42;;;;;;;0.32;100.00;99433.25;5024591;28;20387;-64
2023/01/28 02:57:34;;;;;;;5.57;2.90;;;;;;;0.37;100.00;99434.56;5068581;28;20021;-64
2023/01/28 03:00:26;;;;;;;6.50;3.10;;;;;;;0.39;100.00;99437.09;5052020;28;20063;-64
2023/01/28 03:03:04;;;;;;;6.18;3.50;;;;;;;0.41;100.00;99430.69;5069249;28;20044;-64
2023/01/28 03:05:35;;;;;;;6.75;3.30;;;;;;;0.44;100.00;99435.75;5075697;28;20056;-64
2023/01/28 03:09:21;;;;;;;4.07;2.60;;;;;;;0.44;100.00;99437.56;5071500;28;20495;-64
2023/01/28 03:38:41;;;;;;;7.15;3.33;;;;;;;0.49;100.00;99445.19;5068526;28;20039;-64
2023/01/28 03:41:10;;;;;;;6.50;3.15;;;;;;;0.48;100.00;99439.03;5054356;28;20468;-64
2023/01/28 03:43:35;;;;;;;7.18;3.33;;;;;;;0.49;100.00;99439.88;5059554;28;20020;-64
2023/01/28 03:46:02;;;;;;;5.88;2.92;;;;;;;0.52;100.00;99456.44;5065223;28;20082;-64
2023/01/28 03:48:28;;;;;;;5.45;3.10;;;;;;;0.49;100.00;99447.88;5055862;28;20032;-63
2023/01/28 03:50:55;;;;;;;7.60;3.00;;;;;;;0.52;100.00;99442.28;5053214;28;20037;-63
2023/01/28 03:53:21;;;;;;;6.38;3.08;;;;;;;0.53;100.00;99450.16;5066345;28;20017;-64
2023/01/28 03:55:49;;;;;;;7.85;3.70;;;;;;;0.54;100.00;99451.84;5070844;28;20024;-64
2023/01/28 03:58:15;;;;;;;6.60;3.42;;;;;;;0.56;100.00;99449.91;5069456;28;20111;-64
2023/01/28 04:00:42;;;;;;;5.95;3.28;;;;;;;0.55;100.00;99447.34;5054019;28;20040;-64
2023/01/28 04:03:16;;;;;;;7.75;3.55;;;;;;;0.56;100.00;99452.56;5055444;28;20104;-64
2023/01/28 04:05:56;;;;;;;6.90;3.40;;;;;;;0.58;100.00;99453.31;5061087;28;20023;-64
2023/01/28 04:08:22;;;;;;;5.43;3.15;;;;;;;0.59;100.00;99457.66;5061245;28;20089;-63
2023/01/28 04:10:47;;;;;;;5.85;3.33;;;;;;;0.57;100.00;99459.56;5054353;28;20438;-64
2023/01/28 04:13:12;;;;;;;6.30;3.35;;;;;;;0.57;100.00;99454.25;5054378;28;20024;-64
2023/01/28 04:15:38;;;;;;;6.32;3.05;;;;;;;0.55;100.00;99453.56;5055466;28;20032;-64
2023/01/28 04:18:03;;;;;;;5.15;3.15;;;;;;;0.62;100.00;99459.22;5056262;28;20058;-64
2023/01/28 04:20:29;;;;;;;6.05;3.63;;;;;;;0.61;100.00;99477.00;5049465;28;20028;-64
2023/01/28 04:22:54;;;;;;;7.13;3.67;;;;;;;0.61;100.00;99466.38;5053717;28;20067;-64
2023/01/28 04:25:19;;;;;;;6.38;3.45;;;;;;;0.59;100.00;99464.78;5058692;28;20058;-64
2023/01/28 04:27:45;;;;;;;6.90;3.65;;;;;;;0.55;100.00;99472.19;5060247;28;20079;-64
2023/01/28 04:30:11;;;;;;;5.25;3.20;;;;;;;0.57;100.00;99474.72;5057296;28;20435;-64
2023/01/28 04:32:36;;;;;;;6.32;3.75;;;;;;;0.70;100.00;99477.25;5070208;28;20026;-64
2023/01/28 04:35:02;;;;;;;5.72;3.38;;;;;;;0.61;100.00;99477.00;5062583;28;20021;-64
2023/01/28 04:37:27;;;;;;;7.13;3.85;;;;;;;0.61;100.00;99479.69;5061036;28;20060;-64
2023/01/28 04:39:53;;;;;;;7.68;3.60;;;;;;;0.52;100.00;99485.72;5047792;28;20391;-64
2023/01/28 04:42:18;;;;;;;9.15;3.75;;;;;;;0.53;100.00;99482.13;5061082;28;20048;-64
2023/01/28 04:44:43;;;;;;;6.20;3.50;;;;;;;0.50;100.00;99485.03;5063944;28;20029;-64
2023/01/28 04:47:09;;;;;;;5.45;3.20;;;;;;;0.56;100.00;99487.19;5059059;28;20090;-64
2023/01/28 04:49:35;;;;;;;8.43;3.80;;;;;;;0.53;100.00;99487.44;5061849;28;20048;-64
2023/01/28 04:52:00;;;;;;;8.27;3.50;;;;;;;0.51;100.00;99486.72;5060623;28;20039;-64
2023/01/28 04:54:26;;;;;;;6.55;3.80;;;;;;;0.48;100.00;99496.75;5051680;28;20460;-64
2023/01/28 04:56:51;;;;;;;7.28;3.60;;;;;;;0.43;100.00;99491.78;5065841;28;20032;-64
2023/01/28 04:59:18;;;;;;;6.85;3.92;;;;;;;0.41;100.00;99493.72;5073795;28;20032;-64
2023/01/28 05:01:44;;;;;;;5.95;3.70;;;;;;;0.47;100.00;99498.56;5064083;28;20024;-64
2023/01/28 05:04:09;;;;;;;8.52;3.85;;;;;;;0.48;100.00;99500.25;5057459;28;20472;-63
2023/01/28 05:06:35;;;;;;;10.73;4.20;;;;;;;0.44;100.00;99498.81;5070968;28;20024;-63
2023/01/28 05:09:00;;;;;;;7.20;3.80;;;;;;;0.46;100.00;99496.88;5071782;28;20479;-64
2023/01/28 05:11:26;;;;;;;9.82;4.25;;;;;;;0.50;100.00;99495.66;5052276;28;20047;-63
2023/01/28 05:13:53;;;;;;;7.10;4.25;;;;;;;0.47;100.00;99501.22;5057439;28;20511;-64
2023/01/28 05:16:18;;;;;;;6.57;4.07;;;;;;;0.43;100.00;99497.13;5072994;28;20025;-63
2023/01/28 05:18:46;;;;;;;7.78;4.20;;;;;;;0.49;100.00;99501.94;5059635;28;20041;-64
2023/01/28 05:21:12;;;;;;;8.65;4.70;;;;;;;0.40;100.00;99508.84;5075685;28;20102;-64
2023/01/28 05:23:38;;;;;;;7.55;4.57;;;;;;;0.41;100.00;99505.22;5062276;28;20759;-64
2023/01/28 05:26:04;;;;;;;8.73;4.63;;;;;;;0.40;100.00;99505.34;5050813;28;20029;-63
2023/01/28 05:28:29;;;;;;;8.20;4.53;;;;;;;0.41;100.00;99510.53;5054427;28;20066;-63
2023/01/28 05:30:55;;;;;;;8.88;4.40;;;;;;;0.43;100.00;99511.28;5056754;28;20107;-63
2023/01/28 05:33:20;;;;;;;10.40;4.63;;;;;;;0.43;100.00;99515.75;5055810;28;20020;-63
2023/01/28 05:35:48;;;;;;;7.88;4.57;;;;;;;0.43;100.00;99519.25;5064688;28;20580;-63
2023/01/28 05:38:14;;;;;;;11.02;4.57;;;;;;;0.44;100.00;99520.94;5059904;28;20032;-64
2023/01/28 05:40:39;;;;;;;8.93;4.80;;;;;;;0.42;100.00;99524.72;5069411;28;20097;-63
2023/01/28 05:43:04;;;;;;;9.40;5.40;;;;;;;0.36;100.00;99525.19;5057927;28;20495;-64
2023/01/28 05:45:30;;;;;;;12.38;4.80;;;;;;;0.36;100.00;99517.19;5062572;28;20031;-68
2023/01/28 05:47:55;;;;;;;8.85;4.95;;;;;;;0.33;100.00;99520.94;5046416;28;20055;-68
2023/01/28 05:50:23;;;;;;;9.55;5.22;;;;;;;0.34;100.00;99514.69;5049300;28;20395;-67
2023/01/28 05:52:48;;;;;;;11.30;5.55;;;;;;;0.29;100.00;99518.63;5059724;28;20016;-67
2023/01/28 05:55:14;;;;;;;11.52;5.65;;;;;;;0.26;100.00;99521.53;5061882;28;20053;-67
2023/01/28 05:57:39;;;;;;;11.32;5.95;;;;;;;0.25;100.00;99519.88;5056599;28;20025;-67
2023/01/28 06:00:07;;;;;;;13.07;6.07;;;;;;;0.28;100.00;99516.97;5065684;28;20052;-67
2023/01/28 06:02:32;;;;;;;9.85;5.35;;;;;;;0.29;100.00;99521.31;5052225;28;20369;-67
2023/01/28 06:04:58;;;;;;;8.98;5.45;;;;;;;0.34;100.00;99532.44;5061736;28;20032;-67
2023/01/28 06:07:23;;;;;;;11.25;5.80;;;;;;;0.35;100.00;99534.16;5058291;28;20101;-67
2023/01/28 06:09:49;;;;;;;11.68;5.43;;;;;;;0.34;100.00;99529.78;5081086;28;20063;-67
2023/01/28 06:12:14;;;;;;;7.65;4.30;;;;;;;0.30;100.00;99538.97;5055886;28;20116;-67
2023/01/28 06:14:40;;;;;;;10.75;5.68;;;;;;;0.30;100.00;99544.31;5074267;28;20061;-67
2023/01/28 06:17:07;;;;;;;14.10;5.80;;;;;;;0.27;100.00;99545.41;5070936;28;20056;-67
2023/01/28 06:19:32;;;;;;;11.20;5.25;;;;;;;0.27;100.00;99544.56;5056347;28;20379;-67
2023/01/28 06:21:58;;;;;;;9.90;5.00;;;;;;;0.26;100.00;99554.31;5052157;28;20031;-67
2023/01/28 06:24:23;;;;;;;11.68;5.05;;;;;;;0.28;100.00;99562.19;5055621;28;20090;-67
2023/01/28 06:26:49;;;;;;;10.75;4.93;;;;;;;0.29;100.00;99563.88;5065753;28;20063;-67
2023/01/28 06:29:14;;;;;;;8.18;4.53;;;;;;;0.30;100.00;99560.28;5057245;28;20459;-67
2023/01/28 06:31:39;;;;;;;8.20;4.72;;;;;;;0.30;100.00;99562.94;5057060;28;20052;-67
2023/01/28 06:34:05;;;;;;;9.63;4.97;;;;;;;0.34;100.00;99569.69;5054027;28;20055;-67
2023/01/28 06:36:30;;;;;;;9.38;4.95;;;;;;;0.33;100.00;99570.69;5079653;28;20033;-64
2023/01/28 06:38:56;;;;;;;11.18;4.97;;;;;;;0.33;100.00;99573.34;5096758;22;20455;-81
2023/01/28 06:41:29;;;;;;;8.90;4.60;;;;;;;-0.32;100.00;99463.06;5074908;28;20024;-81
2023/01/28 06:47:26;;;;;;;8.43;4.50;;;;;;;-0.15;100.00;99505.19;5096633;28;20073;-80
2023/01/28 06:49:51;;;;;;;8.65;5.18;;;;;;;0.09;100.00;99558.31;5071693;28;20051;-76
2023/01/28 06:52:16;;;;;;;9.05;5.15;;;;;;;0.22;100.00;99577.66;5069824;28;20474;-76
2023/01/28 06:54:41;;;;;;;10.65;5.65;;;;;;;0.15;100.00;99564.97;5059373;28;20056;-77
2023/01/28 06:57:07;;;;;;;10.77;5.40;;;;;;;0.12;100.00;99565.19;5067553;28;20039;-76
2023/01/28 06:59:32;;;;;;;12.15;6.30;;;;;;;0.28;100.00;99588.81;5050303;28;20029;-77
2023/01/28 07:01:57;;;;;;;10.40;5.40;;;;;;;0.18;100.00;99576.22;5065650;28;20024;-76
2023/01/28 07:04:23;;;;;;;11.57;5.25;;;;;;;0.25;100.00;99583.72;5040540;28;20023;-76
2023/01/28 07:06:48;;;;;;;11.50;5.82;;;;;;;0.19;100.00;99580.56;5067745;28;20082;-76
2023/01/28 07:09:13;;;;;;;10.05;6.00;;;;;;;0.27;100.00;99584.47;5066926;28;20017;-75
2023/01/28 07:11:39;;;;;;;11.80;6.25;;;;;;;0.25;100.00;99595.22;5047533;28;20024;-74
2023/01/28 07:14:04;;;;;;;11.93;6.95;;;;;;;0.15;100.00;99586.25;5067632;28;20455;-74
2023/01/28 07:16:30;;;;;;;12.57;5.70;;;;;;;0.27;100.00;99603.09;5050704;28;20485;-74
2023/01/28 07:18:55;;;;;;;11.90;6.45;;;;;;;0.26;100.00;99596.91;5061250;28;20036;-74
2023/01/28 07:21:20;;;;;;;15.07;7.65;;;;;;;0.37;100.00;99598.75;5068232;28;20028;-74
2023/01/28 07:23:46;;;;;;;12.20;6.65;;;;;;;0.30;100.00;99589.56;5042990;28;20024;-74
2023/01/28 07:26:11;;;;;;;15.90;6.72;;;;;;;0.41;100.00;99602.88;5050167;28;20017;-74
2023/01/28 07:28:36;;;;;;;11.68;6.78;;;;;;;0.43;100.00;99595.63;5070395;28;20027;-74
2023/01/28 07:31:02;;;;;;;13.93;7.07;;;;;;;0.43;100.00;99599.13;5068096;28;20043;-74
2023/01/28 07:33:27;;;;;;;14.05;6.50;;;;;;;0.50;100.00;99604.81;5064903;28;20024;-73
2023/01/28 07:35:52;;;;;;;10.90;5.63;;;;;;;0.58;100.00;99612.22;5067256;28;20034;-74
2023/01/28 07:38:18;;;;;;;15.75;6.82;;;;;;;0.56;100.00;99604.34;5064511;28;20028;-73
2023/01/28 07:40:44;;;;;;;13.48;7.55;;;;;;;0.68;100.00;99613.16;5069857;28;20039;-74
2023/01/28 07:43:09;;;;;;;13.82;7.43;;;;;;;0.69;100.00;99592.72;5050002;28;20656;-74
2023/01/28 07:45:35;;;;;;;14.25;7.43;;;;;;;0.76;100.00;99607.25;5063963;28;20021;-74
2023/01/28 07:48:03;;;;;;;16.50;7.78;;;;;;;0.91;100.00;99614.03;5060394;28;20083;-79
2023/01/28 07:50:31;;;;;;;17.08;8.80;;;;;;;0.91;100.00;99608.69;5054103;28;20501;-78
2023/01/28 07:52:57;;;;;;;16.00;9.30;;;;;;;0.91;100.00;99610.50;5056730;28;20024;-79
2023/01/28 07:55:23;;;;;;;15.23;8.45;;;;;;;0.94;100.00;99608.44;5056629;28;20028;-81
2023/01/28 07:57:56;;;;;;;15.75;9.77;;;;;;;1.02;100.00;99619.38;5063960;28;20033;-78
2023/01/28 08:00:23;;;;;;;14.40;7.28;;;;;;;1.03;100.00;99620.19;5045978;28;20117;-78
2023/01/28 08:02:49;;;;;;;13.23;7.45;;;;;;;0.99;100.00;99605.41;5050559;28;20093;-79
2023/01/28 08:05:19;;;;;;;13.10;7.38;;;;;;;1.03;100.00;99607.72;5054384;28;20032;-79
2023/01/28 08:07:46;;;;;;;13.55;7.07;;;;;;;1.16;100.00;99622.75;5069448;28;20474;-79
2023/01/28 08:10:11;;;;;;;18.73;8.55;;;;;;;1.13;100.00;99606.97;5079917;28;20029;-81
2023/01/28 08:12:37;;;;;;;15.57;8.20;;;;;;;1.31;100.00;99606.34;5068883;28;20021;-77
2023/01/28 08:15:37;;;;;;;16.75;8.85;;;;;;;1.36;100.00;99621.94;5069616;28;20000;-81
2023/01/28 08:18:04;;;;;;;18.33;8.57;;;;;;;1.43;100.00;99625.81;5068507;28;20024;-80
2023/01/28 08:20:30;;;;;;;14.43;7.68;;;;;;;1.48;100.00;99631.63;5058427;28;20021;-80
2023/01/28 08:23:06;;;;;;;11.43;6.75;;;;;;;1.62;100.00;99633.16;5056103;28;20065;-81
2023/01/28 08:25:36;;;;;;;15.38;7.28;;;;;;;1.64;100.00;99628.53;5057415;28;20055;-81
2023/01/28 08:28:02;;;;;;;;;;;;;;;1.74;100.00;99637.50;5072554;28;20055;-80
2023/01/28 08:30:27;;;;;;;14.55;7.40;;;;;;;1.78;100.00;99630.06;5075248;28;19913;-80
2023/01/28 08:32:58;;;;;;;13.68;7.10;;;;;;;1.77;100.00;99623.06;5091437;28;20059;-81
2023/01/28 08:35:25;;;;;;;18.65;9.32;;;;;;;2.00;100.00;99634.47;5060525;28;20025;-82
2023/01/28 08:37:54;;;;;;;27.77;12.55;;;;;;;2.08;100.00;99642.69;5080577;28;20036;-84
2023/01/28 08:40:20;;;;;;;18.43;8.33;;;;;;;1.94;100.00;99611.84;5077660;28;20032;-81
2023/01/28 08:42:52;;;;;;;27.67;13.15;;;;;;;1.76;100.00;99570.69;5063309;28;20343;-84
2023/01/28 08:50:10;;;;;;;16.52;8.35;;;;;;;2.27;100.00;99625.97;5086269;28;20363;-63
2023/01/28 08:52:36;;;;;;;26.35;11.52;;;;;;;2.33;100.00;99630.81;5076365;28;20034;-62
2023/01/28 08:55:01;;;;;;;18.00;8.95;;;;;;;2.36;100.00;99629.69;5071490;28;20032;-63
2023/01/28 08:57:26;;;;;;;16.38;7.88;;;;;;;2.45;100.00;99622.72;5071578;28;20024;-62
2023/01/28 08:59:52;;;;;;;19.98;9.07;;;;;;;2.45;100.00;99623.56;5083647;28;20025;-62
2023/01/28 09:02:17;;;;;;;22.02;9.82;;;;;;;2.39;100.00;99635.63;5080572;28;20077;-63
2023/01/28 09:04:43;;;;;;;22.15;10.65;;;;;;;2.38;100.00;99639.28;5081640;28;20464;-62
2023/01/28 09:07:08;;;;;;;16.73;8.32;;;;;;;2.56;100.00;99646.66;5085889;28;20106;-63
2023/01/28 09:09:33;;;;;;;14.70;7.97;;;;;;;2.52;100.00;99643.44;5079204;28;20025;-62
2023/01/28 09:11:59;;;;;;;16.58;8.57;;;;;;;2.49;100.00;99645.50;5086158;28;20472;-63
2023/01/28 09:14:24;;;;;;;13.60;7.70;;;;;;;2.47;100.00;99652.81;5091777;28;20024;-62
2023/01/28 09:16:50;;;;;;;15.13;7.53;;;;;;;2.44;100.00;99645.03;5087940;28;20024;-62
2023/01/28 09:19:15;;;;;;;16.33;7.93;;;;;;;2.40;100.00;99647.97;5089287;28;20029;-63
2023/01/28 09:21:40;;;;;;;13.20;7.03;;;;;;;2.42;100.00;99654.03;5084116;28;20075;-62
2023/01/28 09:24:10;;;;;;;13.45;7.50;;;;;;;2.40;100.00;99658.66;5103417;28;20115;-63
2023/01/28 09:26:36;;;;;;;13.70;7.10;;;;;;;2.43;100.00;99662.91;5092618;28;20398;-63
2023/01/28 09:29:02;;;;;;;14.65;7.00;;;;;;;2.49;100.00;99667.72;5087577;28;20017;-63
2023/01/28 09:31:27;;;;;;;13.82;7.07;;;;;;;2.46;100.00;99659.13;5089657;28;20423;-63
2023/01/28 09:33:56;;;;;;;12.63;7.38;;;;;;;2.43;100.00;99668.22;5088576;28;20024;-63
2023/01/28 09:36:21;;;;;;;13.90;7.63;;;;;;;2.49;100.00;99666.88;5097467;28;20060;-62
2023/01/28 09:38:47;;;;;;;14.15;7.55;;;;;;;2.47;100.00;99671.50;5101403;28;20184;-63
2023/01/28 09:41:27;;;;;;;13.30;7.43;;;;;;;2.39;100.00;99678.34;5091558;28;20147;-62
2023/01/28 09:44:39;;;;;;;14.32;7.57;;;;;;;2.35;100.00;99679.56;5083981;28;20059;-63
2023/01/28 09:47:18;;;;;;;13.70;7.55;;;;;;;2.29;100.00;99679.25;5057023;28;20040;-62
2023/01/28 09:49:48;;;;;;;14.73;7.50;;;;;;;2.27;100.00;99682.03;5084853;28;20099;-63
2023/01/28 09:52:18;;;;;;;12.73;7.20;;;;;;;2.35;100.00;99682.22;5076327;28;20056;-62
2023/01/28 09:55:09;;;;;;;17.85;8.57;;;;;;;2.21;100.00;99689.72;5081912;28;20464;-62
2023/01/28 09:57:54;;;;;;;14.18;7.60;;;;;;;2.19;100.00;99681.84;5073621;28;20484;-62
2023/01/28 10:00:22;;;;;;;16.00;7.88;;;;;;;2.26;100.00;99688.38;5074803;28;20030;-63
2023/01/28 10:02:48;;;;;;;13.07;6.85;;;;;;;2.49;100.00;99688.22;5084655;28;20028;-61
2023/01/28 10:05:47;;;;;;;14.00;7.03;;;;;;;2.33;100.00;99684.22;5082217;28;20032;-62
2023/01/28 10:08:28;;;;;;;15.00;7.55;;;;;;;2.36;100.00;99685.78;5044966;28;20032;-62
2023/01/28 10:11:12;;;;;;;13.88;6.80;;;;;;;2.44;100.00;99693.13;5084820;28;20075;-63
2023/01/28 10:14:00;;;;;;;14.23;7.47;;;;;;;2.57;100.00;99675.94;5082653;28;20025;-64
2023/01/28 10:16:49;;;;;;;14.02;7.15;;;;;;;2.70;100.00;99670.41;5080527;28;20590;-64
2023/01/28 10:19:31;;;;;;;15.07;7.25;;;;;;;2.65;100.00;99667.28;5082798;28;20036;-64
2023/01/28 10:22:14;;;;;;;19.10;7.57;;;;;;;2.81;100.00;99669.47;5092554;28;20379;-64
2023/01/28 10:24:46;;;;;;;14.50;8.05;;;;;;;2.85;100.00;99674.38;5093065;28;20044;-63
2023/01/28 10:27:20;;;;;;;14.10;7.22;;;;;;;2.95;100.00;99662.91;5080805;28;20383;-63
2023/01/28 10:29:48;;;;;;;14.25;7.40;;;;;;;2.72;100.00;99665.75;5068055;28;20039;-64
2023/01/28 10:32:20;;;;;;;16.50;7.20;;;;;;;2.71;100.00;99664.06;5078719;28;20069;-64
2023/01/28 10:34:45;;;;;;;14.82;8.07;;;;;;;2.69;100.00;99663.34;5075259;28;20150;-67
2023/01/28 10:37:13;;;;;;;16.30;8.18;;;;;;;2.71;100.00;99661.38;5080384;28;20035;-64
2023/01/28 10:39:39;;;;;;;15.13;7.33;;;;;;;2.75;100.00;99657.50;5097616;28;20094;-64
2023/01/28 10:42:21;;;;;;;17.15;7.93;;;;;;;2.84;100.00;99659.34;5088951;28;20470;-64
2023/01/28 10:44:48;;;;;;;16.13;7.78;;;;;;;2.88;100.00;99665.25;5086452;28;20032;-64
2023/01/28 10:47:23;;;;;;;12.45;6.53;;;;;;;2.82;100.00;99661.31;5086371;28;20061;-66
2023/01/28 10:49:58;;;;;;;13.85;7.30;;;;;;;2.70;100.00;99659.72;5085777;28;20077;-63
2023/01/28 10:52:24;;;;;;;14.77;7.88;;;;;;;2.75;100.00;99660.16;5114377;28;20114;-63
2023/01/28 10:55:31;;;;;;;14.88;7.40;;;;;;;2.64;100.00;99676.25;5082904;28;20407;-63
2023/01/28 10:57:57;;;;;;;14.55;7.00;;;;;;;2.59;100.00;99668.66;5093889;28;20023;-64
2023/01/28 11:00:30;;;;;;;16.73;7.47;;;;;;;2.58;100.00;99671.44;5104785;22;20126;-60
2023/01/28 11:02:56;;;;;;;17.15;7.28;;;;;;;2.44;100.00;99679.75;5094519;28;20077;-61
2023/01/28 11:05:26;;;;;;;13.18;6.85;;;;;;;2.32;100.00;99677.16;5076613;28;20028;-61
2023/01/28 11:08:28;;;;;;;16.50;7.10;;;;;;;2.10;100.00;99678.13;5071819;28;20024;-60
2023/01/28 11:11:13;;;;;;;12.57;6.50;;;;;;;2.08;100.00;99669.38;5070372;22;20076;-62
2023/01/28 11:13:48;;;;;;;14.57;6.38;;;;;;;2.06;100.00;99673.16;5107704;22;20033;-71
2023/01/28 11:16:17;;;;;;;13.07;6.45;;;;;;;2.19;100.00;99652.47;5072420;28;20027;-73
2023/01/28 11:18:57;;;;;;;15.30;6.82;;;;;;;2.25;100.00;99670.63;5045077;28;20239;-73
2023/01/28 11:21:28;;;;;;;11.77;6.75;;;;;;;2.14;100.00;99663.53;5050258;28;20055;-78
2023/01/28 11:24:06;;;;;;;12.68;5.63;;;;;;;2.16;100.00;99682.09;5062156;28;20031;-76
2023/01/28 11:26:42;;;;;;;11.43;5.15;;;;;;;2.07;100.00;99683.72;5040585;28;20138;-74
2023/01/28 11:29:21;;;;;;;14.27;5.65;;;;;;;1.94;100.00;99662.53;5045898;28;20028;-74
2023/01/28 11:31:47;;;;;;;10.80;5.68;;;;;;;2.01;100.00;99678.03;5049366;28;20021;-74
2023/01/28 11:34:16;;;;;;;14.60;6.75;;;;;;;2.03;100.00;99682.25;5051822;28;20040;-75
2023/01/28 11:36:49;;;;;;;12.68;6.25;;;;;;;2.05;100.00;99687.50;5065437;28;20039;-73
2023/01/28 11:39:24;;;;;;;11.82;6.20;;;;;;;1.94;100.00;99675.88;5040899;28;20060;-73
2023/01/28 11:41:50;;;;;;;12.38;5.47;;;;;;;1.95;100.00;99674.06;5064347;28;20644;-73
2023/01/28 11:44:26;;;;;;;14.20;6.30;;;;;;;2.05;100.00;99692.81;5069530;28;20028;-73
2023/01/28 11:47:20;;;;;;;11.02;6.03;;;;;;;2.07;100.00;99677.50;5064666;28;20453;-73
2023/01/28 11:50:10;;;;;;;11.95;5.47;;;;;;;2.07;100.00;99680.19;5048203;28;20103;-71
2023/01/28 11:52:57;;;;;;;11.85;5.18;;;;;;;2.02;100.00;99690.38;5037301;28;20112;-72
2023/01/28 11:56:07;;;;;;;10.77;5.20;;;;;;;2.00;100.00;99693.19;5037772;28;20032;-74
2023/01/28 11:59:09;;;;;;;11.23;5.45;;;;;;;1.91;100.00;99693.94;4955468;28;20039;-74
2023/01/28 12:01:50;;;;;;;10.88;5.25;;;;;;;1.89;100.00;99678.06;5031066;28;20033;-74
2023/01/28 12:04:46;;;;;;;11.73;5.40;;;;;;;1.75;100.00;99686.34;5053082;28;20035;-73
2023/01/28 12:07:42;;;;;;;11.57;5.82;;;;;;;1.75;100.00;99705.03;5044211;28;20032;-74
2023/01/28 12:10:18;;;;;;;12.25;6.03;;;;;;;1.51;100.00;99690.03;5040224;28;20036;-74
2023/01/28 12:13:04;;;;;;;11.32;5.70;;;;;;;1.54;100.00;99702.28;5046248;28;20051;-73
2023/01/28 12:15:56;;;;;;;12.13;5.65;;;;;;;1.47;100.00;99695.75;5050599;28;20082;-74
2023/01/28 12:18:40;;;;;;;12.05;5.60;;;;;;;1.40;100.00;99692.72;5048929;28;20025;-75
2023/01/28 12:21:30;;;;;;;11.18;6.00;;;;;;;1.35;100.00;99694.91;5056915;28;20029;-72
2023/01/28 12:24:14;;;;;;;9.55;5.78;;;;;;;1.31;100.00;99698.81;5038302;28;20029;-73